createdAt,value
2016-05-23T00:00:23.559Z,1001.05
2016-05-23T00:01:23.609Z,1001.02
2016-05-23T00:02:23.643Z,1000.94
2016-05-23T00:03:23.677Z,1000.96
2016-05-23T00:04:23.711Z,1000.9
2016-05-23T00:05:23.745Z,1000.91
2016-05-23T00:06:23.794Z,1000.89
2016-05-23T00:07:23.828Z,1000.89
2016-05-23T00:08:23.862Z,1000.86
2016-05-23T00:09:23.897Z,1000.89
2016-05-23T00:10:23.946Z,1000.87
2016-05-23T00:11:23.980Z,1000.83
2016-05-23T00:12:24.014Z,1000.84
2016-05-23T00:13:24.047Z,1000.81
2016-05-23T00:14:24.268Z,1000.8
2016-05-23T00:15:24.115Z,1000.78
2016-05-23T00:16:24.166Z,1000.77
2016-05-23T00:17:24.199Z,1000.77
2016-05-23T00:18:24.248Z,1000.72
2016-05-23T00:19:24.267Z,1000.73
2016-05-23T00:20:24.301Z,1000.72
2016-05-23T00:21:24.351Z,1000.71
2016-05-23T00:22:24.384Z,1000.73
2016-05-23T00:23:24.419Z,1000.67
2016-05-23T00:24:24.452Z,1000.67
2016-05-23T00:25:24.486Z,1000.67
2016-05-23T00:26:24.536Z,1000.6
2016-05-23T00:27:24.569Z,1000.59
2016-05-23T00:28:24.604Z,1000.6
2016-05-23T00:29:24.637Z,1000.57
2016-05-23T00:30:24.671Z,1000.63
2016-05-23T00:31:24.721Z,1000.64
2016-05-23T00:32:24.755Z,1000.67
2016-05-23T00:33:24.789Z,1000.64
2016-05-23T00:34:24.823Z,1000.64
2016-05-23T00:35:24.856Z,1000.65
2016-05-23T00:36:24.906Z,1000.68
2016-05-23T00:37:24.940Z,1000.71
2016-05-23T00:38:24.975Z,1000.74
2016-05-23T00:39:25.008Z,1000.71
2016-05-23T00:40:25.042Z,1000.69
2016-05-23T00:41:25.075Z,1000.68
2016-05-23T00:42:25.125Z,1000.67
2016-05-23T00:43:25.160Z,1000.68
2016-05-23T00:44:25.194Z,1000.71
2016-05-23T00:45:25.227Z,1000.69
2016-05-23T00:46:25.277Z,1000.72
2016-05-23T00:47:25.311Z,1000.7
2016-05-23T00:48:25.344Z,1000.74
2016-05-23T00:49:25.379Z,1000.77
2016-05-23T00:50:25.413Z,1000.79
2016-05-23T00:51:25.447Z,1000.82
2016-05-23T00:52:25.496Z,1000.81
2016-05-23T00:53:25.529Z,1000.81
2016-05-23T00:54:25.565Z,1000.86
2016-05-23T00:55:25.598Z,1000.83
2016-05-23T00:56:25.631Z,1000.83
2016-05-23T00:57:25.682Z,1000.85
2016-05-23T00:58:25.715Z,1000.82
2016-05-23T00:59:25.749Z,1000.77
2016-05-23T01:00:25.783Z,1000.79
2016-05-23T01:01:25.834Z,1000.76
2016-05-23T01:02:25.867Z,1000.8
2016-05-23T01:03:25.900Z,1000.77
2016-05-23T01:04:25.935Z,1000.76
2016-05-23T01:05:25.969Z,1000.74
2016-05-23T01:06:26.003Z,1000.75
2016-05-23T01:07:26.052Z,1000.74
2016-05-23T01:08:26.086Z,1000.74
2016-05-23T01:09:26.120Z,1000.74
2016-05-23T01:10:26.169Z,1000.7
2016-05-23T01:11:26.203Z,1000.7
2016-05-23T01:12:26.238Z,1000.69
2016-05-23T01:13:26.272Z,1000.64
2016-05-23T01:14:26.305Z,1000.6
2016-05-23T01:15:26.339Z,1000.58
2016-05-23T01:16:26.374Z,1000.6
2016-05-23T01:17:26.422Z,1000.56
2016-05-23T01:18:26.457Z,1000.53
2016-05-23T01:19:26.491Z,1000.56
2016-05-23T01:20:26.525Z,1000.56
2016-05-23T01:21:26.558Z,1000.57
2016-05-23T01:22:26.608Z,1000.55
2016-05-23T01:23:26.642Z,1000.54
2016-05-23T01:24:26.691Z,1000.55
2016-05-23T01:25:26.710Z,1000.58
2016-05-23T01:26:26.743Z,1000.54
2016-05-23T01:27:26.779Z,1000.51
2016-05-23T01:28:26.827Z,1000.54
2016-05-23T01:29:27.111Z,1000.52
2016-05-23T01:30:26.895Z,1000.52
2016-05-23T01:31:26.929Z,1000.52
2016-05-23T01:32:26.963Z,1000.55
2016-05-23T01:33:27.012Z,1000.51
2016-05-23T01:34:27.047Z,1000.54
2016-05-23T01:35:27.081Z,1000.52
2016-05-23T01:36:27.114Z,1000.46
2016-05-23T01:37:27.148Z,1000.39
2016-05-23T01:38:27.197Z,1000.42
2016-05-23T01:39:27.232Z,1000.43
2016-05-23T01:40:27.266Z,1000.44
2016-05-23T01:41:27.300Z,1000.43
2016-05-23T01:42:27.334Z,1000.44
2016-05-23T01:43:27.383Z,1000.43
2016-05-23T01:44:27.417Z,1000.46
2016-05-23T01:45:27.452Z,1000.43
2016-05-23T01:46:27.485Z,1000.45
2016-05-23T01:47:27.519Z,1000.42
2016-05-23T01:48:27.553Z,1000.42
2016-05-23T01:49:27.587Z,1000.39
2016-05-23T01:50:27.636Z,1000.44
2016-05-23T01:51:27.671Z,1000.44
2016-05-23T01:52:27.704Z,1000.45
2016-05-23T01:53:27.738Z,1000.46
2016-05-23T01:54:27.772Z,1000.46
2016-05-23T01:55:27.822Z,1000.48
2016-05-23T01:56:27.856Z,1000.44
2016-05-23T01:57:27.890Z,1000.44
2016-05-23T01:58:27.924Z,1000.4
2016-05-23T01:59:27.973Z,1000.38
2016-05-23T02:00:28.007Z,1000.41
2016-05-23T02:01:28.040Z,1000.36
2016-05-23T02:02:28.076Z,1000.36
2016-05-23T02:03:28.109Z,1000.36
2016-05-23T02:04:28.142Z,1000.37
2016-05-23T02:05:28.193Z,1000.38
2016-05-23T02:06:28.226Z,1000.39
2016-05-23T02:07:28.260Z,1000.38
2016-05-23T02:08:28.326Z,1000.37
2016-05-23T02:09:28.329Z,1000.37
2016-05-23T02:10:28.378Z,1000.37
2016-05-23T02:11:28.412Z,1000.39
2016-05-23T02:12:28.445Z,1000.37
2016-05-23T02:13:28.479Z,1000.37
2016-05-23T02:14:28.639Z,1000.35
2016-05-23T02:15:28.547Z,1000.36
2016-05-23T02:16:28.597Z,1000.32
2016-05-23T02:17:28.630Z,1000.32
2016-05-23T02:18:28.665Z,1000.33
2016-05-23T02:19:28.699Z,1000.33
2016-05-23T02:20:28.733Z,1000.29
2016-05-23T02:21:28.767Z,1000.28
2016-05-23T02:22:28.816Z,1000.31
2016-05-23T02:23:28.850Z,1000.31
2016-05-23T02:24:28.900Z,1000.3
2016-05-23T02:25:28.918Z,1000.31
2016-05-23T02:26:28.952Z,1000.31
2016-05-23T02:27:28.986Z,1000.34
2016-05-23T02:28:29.035Z,1000.31
2016-05-23T02:29:29.335Z,1000.33
2016-05-23T02:30:29.104Z,1000.34
2016-05-23T02:31:29.137Z,1000.35
2016-05-23T02:32:29.188Z,1000.34
2016-05-23T02:33:29.206Z,1000.38
2016-05-23T02:34:29.255Z,1000.35
2016-05-23T02:35:29.289Z,1000.4
2016-05-23T02:36:29.322Z,1000.38
2016-05-23T02:37:29.357Z,1000.37
2016-05-23T02:38:29.390Z,1000.4
2016-05-23T02:39:29.440Z,1000.37
2016-05-23T02:40:29.474Z,1000.39
2016-05-23T02:41:29.509Z,1000.36
2016-05-23T02:42:29.542Z,1000.4
2016-05-23T02:43:29.576Z,1000.36
2016-05-23T02:44:29.610Z,1000.39
2016-05-23T02:45:29.659Z,1000.39
2016-05-23T02:46:29.694Z,1000.38
2016-05-23T02:47:29.727Z,1000.39
2016-05-23T02:48:29.761Z,1000.41
2016-05-23T02:49:29.811Z,1000.4
2016-05-23T02:50:29.830Z,1000.4
2016-05-23T02:51:29.879Z,1000.42
2016-05-23T02:52:29.913Z,1000.42
2016-05-23T02:53:29.946Z,1000.43
2016-05-23T02:54:29.980Z,1000.42
2016-05-23T02:55:30.015Z,1000.43
2016-05-23T02:56:30.049Z,1000.43
2016-05-23T02:57:30.114Z,1000.44
2016-05-23T02:58:30.132Z,1000.44
2016-05-23T02:59:30.650Z,1000.44
2016-05-23T03:00:30.199Z,1000.48
2016-05-23T03:01:30.234Z,1000.46
2016-05-23T03:02:30.268Z,1000.44
2016-05-23T03:03:30.301Z,1000.47
2016-05-23T03:04:30.351Z,1000.48
2016-05-23T03:05:30.384Z,1000.46
2016-05-23T03:06:30.419Z,1000.5
2016-05-23T03:07:30.453Z,1000.53
2016-05-23T03:08:30.487Z,1000.51
2016-05-23T03:09:30.536Z,1000.53
2016-05-23T03:10:30.570Z,1000.53
2016-05-23T03:11:30.604Z,1000.53
2016-05-23T03:12:30.639Z,1000.54
2016-05-23T03:13:30.672Z,1000.51
2016-05-23T03:14:30.722Z,1000.55
2016-05-23T03:15:30.740Z,1000.53
2016-05-23T03:16:30.790Z,1000.53
2016-05-23T03:17:30.824Z,1000.55
2016-05-23T03:18:30.857Z,1000.57
2016-05-23T03:19:30.892Z,1000.55
2016-05-23T03:20:30.925Z,1000.59
2016-05-23T03:21:30.975Z,1000.57
2016-05-23T03:22:31.009Z,1000.6
2016-05-23T03:23:31.043Z,1000.6
2016-05-23T03:24:31.077Z,1000.64
2016-05-23T03:25:31.111Z,1000.6
2016-05-23T03:26:31.145Z,1000.6
2016-05-23T03:27:31.194Z,1000.62
2016-05-23T03:28:31.228Z,1000.58
2016-05-23T03:29:31.262Z,1000.61
2016-05-23T03:30:31.296Z,1000.59
2016-05-23T03:31:31.330Z,1000.59
2016-05-23T03:32:31.364Z,1000.62
2016-05-23T03:33:31.413Z,1000.57
2016-05-23T03:34:31.447Z,1000.57
2016-05-23T03:35:31.482Z,1000.59
2016-05-23T03:36:31.515Z,1000.58
2016-05-23T03:37:31.565Z,1000.58
2016-05-23T03:38:31.583Z,1000.56
2016-05-23T03:39:31.633Z,1000.6
2016-05-23T03:40:31.667Z,1000.56
2016-05-23T03:41:31.701Z,1000.6
2016-05-23T03:42:31.734Z,1000.58
2016-05-23T03:43:31.769Z,1000.59
2016-05-23T03:44:31.803Z,1000.61
2016-05-23T03:45:31.852Z,1000.57
2016-05-23T03:46:31.886Z,1000.57
2016-05-23T03:47:31.919Z,1000.58
2016-05-23T03:48:31.954Z,1000.58
2016-05-23T03:49:31.988Z,1000.57
2016-05-23T03:50:32.022Z,1000.59
2016-05-23T03:51:32.072Z,1000.57
2016-05-23T03:52:32.105Z,1000.57
2016-05-23T03:53:32.139Z,1000.53
2016-05-23T03:54:32.174Z,1000.52
2016-05-23T03:55:32.208Z,1000.49
2016-05-23T03:56:32.257Z,1000.52
2016-05-23T03:57:32.291Z,1000.54
2016-05-23T03:58:32.324Z,1000.57
2016-05-23T03:59:32.358Z,1000.54
2016-05-23T04:00:32.393Z,1000.52
2016-05-23T04:01:32.426Z,1000.52
2016-05-23T04:02:32.476Z,1000.49
2016-05-23T04:03:32.510Z,1000.51
2016-05-23T04:04:32.544Z,1000.46
2016-05-23T04:05:32.593Z,1000.49
2016-05-23T04:06:32.612Z,1000.48
2016-05-23T04:07:32.646Z,1000.48
2016-05-23T04:08:32.680Z,1000.48
2016-05-23T04:09:32.729Z,1000.47
2016-05-23T04:10:32.763Z,1000.48
2016-05-23T04:11:32.797Z,1000.49
2016-05-23T04:12:32.831Z,1000.42
2016-05-23T04:13:32.865Z,1000.5
2016-05-23T04:14:32.915Z,1000.48
2016-05-23T04:15:32.948Z,1000.5
2016-05-23T04:16:32.983Z,1000.52
2016-05-23T04:17:33.017Z,1000.51
2016-05-23T04:18:33.050Z,1000.5
2016-05-23T04:19:33.084Z,1000.52
2016-05-23T04:20:33.134Z,1000.48
2016-05-23T04:21:33.167Z,1000.49
2016-05-23T04:22:33.202Z,1000.46
2016-05-23T04:23:33.236Z,1000.5
2016-05-23T04:24:33.269Z,1000.47
2016-05-23T04:25:33.319Z,1000.47
2016-05-23T04:26:33.353Z,1000.47
2016-05-23T04:27:33.388Z,1000.49
2016-05-23T04:28:33.421Z,1000.46
2016-05-23T04:29:34.033Z,1000.46
2016-05-23T04:30:33.488Z,1000.46
2016-05-23T04:31:33.538Z,1000.49
2016-05-23T04:32:33.571Z,1000.46
2016-05-23T04:33:33.606Z,1000.49
2016-05-23T04:34:33.640Z,1000.48
2016-05-23T04:35:33.674Z,1000.51
2016-05-23T04:36:33.724Z,1000.51
2016-05-23T04:37:33.757Z,1000.5
2016-05-23T04:38:33.792Z,1000.53
2016-05-23T04:39:33.841Z,1000.48
2016-05-23T04:40:33.859Z,1000.48
2016-05-23T04:41:33.909Z,1000.49
2016-05-23T04:42:33.943Z,1000.47
2016-05-23T04:43:33.977Z,1000.45
2016-05-23T04:44:34.011Z,1000.44
2016-05-23T04:45:34.045Z,1000.46
2016-05-23T04:46:34.079Z,1000.43
2016-05-23T04:47:34.128Z,1000.44
2016-05-23T04:48:34.162Z,1000.44
2016-05-23T04:49:34.212Z,1000.45
2016-05-23T04:50:34.231Z,1000.42
2016-05-23T04:51:34.281Z,1000.4
2016-05-23T04:52:34.313Z,1000.43
2016-05-23T04:53:34.348Z,1000.46
2016-05-23T04:54:34.381Z,1000.47
2016-05-23T04:55:34.416Z,1000.46
2016-05-23T04:56:34.450Z,1000.48
2016-05-23T04:57:34.500Z,1000.53
2016-05-23T04:58:34.533Z,1000.5
2016-05-23T04:59:34.566Z,1000.53
2016-05-23T05:00:34.602Z,1000.53
2016-05-23T05:01:34.650Z,1000.56
2016-05-23T05:02:34.685Z,1000.56
2016-05-23T05:03:34.718Z,1000.56
2016-05-23T05:04:34.752Z,1000.57
2016-05-23T05:05:34.786Z,1000.63
2016-05-23T05:06:34.821Z,1000.64
2016-05-23T05:07:34.870Z,1000.67
2016-05-23T05:08:34.904Z,1000.71
2016-05-23T05:09:34.938Z,1000.68
2016-05-23T05:10:34.971Z,1000.7
2016-05-23T05:11:35.006Z,1000.71
2016-05-23T05:12:35.055Z,1000.68
2016-05-23T05:13:35.089Z,1000.73
2016-05-23T05:14:35.123Z,1000.79
2016-05-23T05:15:35.156Z,1000.74
2016-05-23T05:16:35.191Z,1000.74
2016-05-23T05:17:35.225Z,1000.76
2016-05-23T05:18:35.259Z,1000.79
2016-05-23T05:19:35.308Z,1000.81
2016-05-23T05:20:35.343Z,1000.79
2016-05-23T05:21:35.376Z,1000.81
2016-05-23T05:22:35.410Z,1000.83
2016-05-23T05:23:35.460Z,1000.87
2016-05-23T05:24:35.494Z,1000.84
2016-05-23T05:25:35.527Z,1000.85
2016-05-23T05:26:35.562Z,1000.89
2016-05-23T05:27:35.595Z,1000.84
2016-05-23T05:28:35.645Z,1000.88
2016-05-23T05:29:35.680Z,1000.89
2016-05-23T05:30:35.713Z,1000.91
2016-05-23T05:31:35.747Z,1000.93
2016-05-23T05:32:35.780Z,1000.94
2016-05-23T05:33:35.830Z,1000.95
2016-05-23T05:34:35.864Z,1000.96
2016-05-23T05:35:35.899Z,1000.94
2016-05-23T05:36:36.151Z,1000.96
2016-05-23T05:37:35.966Z,1000.97
2016-05-23T05:38:36.016Z,1000.93
2016-05-23T05:39:36.050Z,1000.97
2016-05-23T05:40:36.084Z,1000.99
2016-05-23T05:41:36.118Z,1000.99
2016-05-23T05:42:36.152Z,1000.99
2016-05-23T05:43:36.201Z,1001
2016-05-23T05:44:36.235Z,1001.02
2016-05-23T05:45:36.268Z,1001.03
2016-05-23T05:46:36.303Z,1001.05
2016-05-23T05:47:36.337Z,1001.07
2016-05-23T05:48:36.386Z,1001.05
2016-05-23T05:49:36.420Z,1001.05
2016-05-23T05:50:36.454Z,1001.06
2016-05-23T05:51:36.504Z,1001.04
2016-05-23T05:52:36.522Z,1001.06
2016-05-23T05:53:36.556Z,1001.03
2016-05-23T05:54:36.606Z,1001.05
2016-05-23T05:55:36.639Z,1001.07
2016-05-23T05:56:36.673Z,1001.07
2016-05-23T05:57:36.708Z,1001.11
2016-05-23T05:58:36.742Z,1001.12
2016-05-23T05:59:36.791Z,1001.15
2016-05-23T06:00:36.825Z,1001.16
2016-05-23T06:01:36.859Z,1001.15
2016-05-23T06:02:36.894Z,1001.14
2016-05-23T06:03:36.927Z,1001.17
2016-05-23T06:04:36.977Z,1001.16
2016-05-23T06:05:37.011Z,1001.21
2016-05-23T06:06:37.044Z,1001.14
2016-05-23T06:07:37.077Z,1001.18
2016-05-23T06:08:37.112Z,1001.19
2016-05-23T06:09:37.162Z,1001.17
2016-05-23T06:10:37.196Z,1001.15
2016-05-23T06:11:37.229Z,1001.13
2016-05-23T06:12:37.263Z,1001.18
2016-05-23T06:13:37.297Z,1001.17
2016-05-23T06:14:37.332Z,1001.17
2016-05-23T06:15:37.381Z,1001.2
2016-05-23T06:16:37.415Z,1001.25
2016-05-23T06:17:37.449Z,1001.21
2016-05-23T06:18:37.483Z,1001.24
2016-05-23T06:19:37.517Z,1001.23
2016-05-23T06:20:37.567Z,1001.23
2016-05-23T06:21:37.601Z,1001.25
2016-05-23T06:22:37.634Z,1001.27
2016-05-23T06:23:37.667Z,1001.27
2016-05-23T06:24:37.702Z,1001.28
2016-05-23T06:25:37.751Z,1001.31
2016-05-23T06:26:37.786Z,1001.32
2016-05-23T06:27:37.819Z,1001.29
2016-05-23T06:28:37.853Z,1001.31
2016-05-23T06:29:37.887Z,1001.36
2016-05-23T06:30:37.937Z,1001.32
2016-05-23T06:31:37.971Z,1001.39
2016-05-23T06:32:38.005Z,1001.4
2016-05-23T06:33:38.039Z,1001.39
2016-05-23T06:34:38.073Z,1001.39
2016-05-23T06:35:38.122Z,1001.37
2016-05-23T06:36:38.156Z,1001.38
2016-05-23T06:37:38.191Z,1001.38
2016-05-23T06:38:38.225Z,1001.41
2016-05-23T06:39:38.257Z,1001.4
2016-05-23T06:40:38.308Z,1001.42
2016-05-23T06:41:38.341Z,1001.49
2016-05-23T06:42:38.376Z,1001.51
2016-05-23T06:43:38.409Z,1001.52
2016-05-23T06:44:38.443Z,1001.48
2016-05-23T06:45:38.477Z,1001.52
2016-05-23T06:46:38.527Z,1001.46
2016-05-23T06:47:38.561Z,1001.52
2016-05-23T06:48:38.621Z,1001.51
2016-05-23T06:49:38.680Z,1001.56
2016-05-23T06:50:38.755Z,1001.51
2016-05-23T06:51:38.814Z,1001.55
2016-05-23T06:52:38.873Z,1001.52
2016-05-23T06:53:38.916Z,1001.53
2016-05-23T06:54:38.959Z,1001.56
2016-05-23T06:55:39.018Z,1001.56
2016-05-23T06:56:39.046Z,1001.57
2016-05-23T06:57:39.104Z,1001.56
2016-05-23T06:58:39.141Z,1001.58
2016-05-23T06:59:39.178Z,1001.61
2016-05-23T07:00:39.216Z,1001.58
2016-05-23T07:01:39.268Z,1001.59
2016-05-23T07:02:39.305Z,1001.6
2016-05-23T07:03:39.340Z,1001.6
2016-05-23T07:04:39.376Z,1001.6
2016-05-23T07:05:39.410Z,1001.63
2016-05-23T07:06:39.461Z,1001.61
2016-05-23T07:07:39.496Z,1001.61
2016-05-23T07:08:39.530Z,1001.61
2016-05-23T07:09:39.564Z,1001.64
2016-05-23T07:10:39.600Z,1001.63
2016-05-23T07:11:39.633Z,1001.61
2016-05-23T07:12:39.683Z,1001.63
2016-05-23T07:13:39.718Z,1001.63
2016-05-23T07:14:39.846Z,1001.62
2016-05-23T07:15:39.786Z,1001.63
2016-05-23T07:16:39.821Z,1001.69
2016-05-23T07:17:39.871Z,1001.69
2016-05-23T07:18:39.904Z,1001.68
2016-05-23T07:19:39.938Z,1001.7
2016-05-23T07:20:39.988Z,1001.69
2016-05-23T07:21:40.022Z,1001.66
2016-05-23T07:22:40.057Z,1001.66
2016-05-23T07:23:40.090Z,1001.67
2016-05-23T07:24:40.124Z,1001.67
2016-05-23T07:25:40.157Z,1001.72
2016-05-23T07:26:40.207Z,1001.68
2016-05-23T07:27:40.240Z,1001.67
2016-05-23T07:28:40.275Z,1001.67
2016-05-23T07:29:40.309Z,1001.66
2016-05-23T07:30:40.343Z,1001.66
2016-05-23T07:31:40.392Z,1001.63
2016-05-23T07:32:40.426Z,1001.63
2016-05-23T07:33:40.460Z,1001.61
2016-05-23T07:34:40.495Z,1001.62
2016-05-23T07:35:40.528Z,1001.6
2016-05-23T07:36:40.578Z,1001.62
2016-05-23T07:37:40.612Z,1001.59
2016-05-23T07:38:40.646Z,1001.64
2016-05-23T07:39:40.680Z,1001.61
2016-05-23T07:40:40.714Z,1001.6
2016-05-23T07:41:40.763Z,1001.64
2016-05-23T07:42:40.797Z,1001.62
2016-05-23T07:43:40.830Z,1001.62
2016-05-23T07:44:40.975Z,1001.64
2016-05-23T07:45:40.899Z,1001.65
2016-05-23T07:46:40.948Z,1001.64
2016-05-23T07:47:40.982Z,1001.66
2016-05-23T07:48:41.032Z,1001.66
2016-05-23T07:49:41.049Z,1001.67
2016-05-23T07:50:41.085Z,1001.69
2016-05-23T07:51:41.134Z,1001.66
2016-05-23T07:52:41.168Z,1001.67
2016-05-23T07:53:41.201Z,1001.7
2016-05-23T07:54:41.235Z,1001.68
2016-05-23T07:55:41.270Z,1001.72
2016-05-23T07:56:41.319Z,1001.71
2016-05-23T07:57:41.353Z,1001.74
2016-05-23T07:58:41.387Z,1001.7
2016-05-23T07:59:41.951Z,1001.72
2016-05-23T08:00:41.455Z,1001.72
2016-05-23T08:01:41.504Z,1001.71
2016-05-23T08:02:41.539Z,1001.71
2016-05-23T08:03:41.572Z,1001.7
2016-05-23T08:04:41.606Z,1001.68
2016-05-23T08:05:41.640Z,1001.7
2016-05-23T08:06:41.690Z,1001.72
2016-05-23T08:07:41.723Z,1001.69
2016-05-23T08:08:41.758Z,1001.71
2016-05-23T08:09:41.792Z,1001.72
2016-05-23T08:10:41.826Z,1001.73
2016-05-23T08:11:41.875Z,1001.72
2016-05-23T08:12:41.909Z,1001.74
2016-05-23T08:13:41.944Z,1001.76
2016-05-23T08:14:41.992Z,1001.8
2016-05-23T08:15:42.026Z,1001.78
2016-05-23T08:16:42.060Z,1001.78
2016-05-23T08:17:42.094Z,1001.78
2016-05-23T08:18:42.128Z,1001.8
2016-05-23T08:19:42.178Z,1001.83
2016-05-23T08:20:42.212Z,1001.84
2016-05-23T08:21:42.246Z,1001.86
2016-05-23T08:22:42.279Z,1001.85
2016-05-23T08:23:42.313Z,1001.87
2016-05-23T08:24:42.362Z,1001.85
2016-05-23T08:25:42.397Z,1001.9
2016-05-23T08:26:42.431Z,1001.88
2016-05-23T08:27:42.481Z,1001.86
2016-05-23T08:28:42.514Z,1001.82
2016-05-23T08:29:42.548Z,1001.84
2016-05-23T08:30:42.582Z,1001.86
2016-05-23T08:31:42.617Z,1001.87
2016-05-23T08:32:42.665Z,1001.84
2016-05-23T08:33:42.715Z,1001.86
2016-05-23T08:34:42.734Z,1001.9
2016-05-23T08:35:42.768Z,1001.9
2016-05-23T08:36:42.801Z,1001.89
2016-05-23T08:37:42.851Z,1001.9
2016-05-23T08:38:42.901Z,1001.82
2016-05-23T08:39:42.919Z,1001.85
2016-05-23T08:40:42.969Z,1001.82
2016-05-23T08:41:43.002Z,1001.82
2016-05-23T08:42:43.036Z,1001.84
2016-05-23T08:43:43.086Z,1001.83
2016-05-23T08:44:43.120Z,1001.82
2016-05-23T08:45:43.155Z,1001.81
2016-05-23T08:46:43.188Z,1001.86
2016-05-23T08:47:43.238Z,1001.85
2016-05-23T08:48:43.272Z,1001.85
2016-05-23T08:49:43.305Z,1001.84
2016-05-23T08:50:43.354Z,1001.83
2016-05-23T08:51:43.388Z,1001.94
2016-05-23T08:52:43.423Z,1001.9
2016-05-23T08:53:43.457Z,1001.88
2016-05-23T08:54:43.507Z,1001.89
2016-05-23T08:55:43.541Z,1001.94
2016-05-23T08:56:43.574Z,1001.94
2016-05-23T08:57:43.608Z,1001.93
2016-05-23T08:58:43.657Z,1001.97
2016-05-23T08:59:43.692Z,1001.96
2016-05-23T09:00:43.726Z,1001.98
2016-05-23T09:01:43.759Z,1002.02
2016-05-23T09:02:43.793Z,1002.04
2016-05-23T09:03:43.859Z,1002.04
2016-05-23T09:04:43.877Z,1002.04
2016-05-23T09:05:43.911Z,1002.04
2016-05-23T09:06:43.945Z,1002.05
2016-05-23T09:07:43.995Z,1002.1
2016-05-23T09:08:44.028Z,1002.09
2016-05-23T09:09:44.062Z,1002.1
2016-05-23T09:10:44.096Z,1002.1
2016-05-23T09:11:44.130Z,1002.14
2016-05-23T09:12:44.180Z,1002.1
2016-05-23T09:13:44.214Z,1002.14
2016-05-23T09:14:44.592Z,1002.19
2016-05-23T09:15:44.281Z,1002.21
2016-05-23T09:16:44.347Z,1002.18
2016-05-23T09:17:44.366Z,1002.15
2016-05-23T09:18:44.400Z,1002.19
2016-05-23T09:19:44.433Z,1002.24
2016-05-23T09:20:44.467Z,1002.25
2016-05-23T09:21:44.516Z,1002.24
2016-05-23T09:22:44.550Z,1002.26
2016-05-23T09:23:44.584Z,1002.24
2016-05-23T09:24:44.618Z,1002.27
2016-05-23T09:25:44.652Z,1002.29
2016-05-23T09:26:44.686Z,1002.27
2016-05-23T09:27:44.735Z,1002.3
2016-05-23T09:28:44.770Z,1002.3
2016-05-23T09:29:44.804Z,1002.35
2016-05-23T09:30:44.837Z,1002.37
2016-05-23T09:31:44.871Z,1002.36
2016-05-23T09:32:44.921Z,1002.38
2016-05-23T09:33:44.954Z,1002.4
2016-05-23T09:34:44.989Z,1002.43
2016-05-23T09:35:45.039Z,1002.46
2016-05-23T09:36:45.056Z,1002.46
2016-05-23T09:37:45.106Z,1002.45
2016-05-23T09:38:45.140Z,1002.45
2016-05-23T09:39:45.174Z,1002.46
2016-05-23T09:40:45.208Z,1002.47
2016-05-23T09:41:45.242Z,1002.47
2016-05-23T09:42:45.292Z,1002.46
2016-05-23T09:43:45.326Z,1002.48
2016-05-23T09:44:45.359Z,1002.51
2016-05-23T09:45:45.394Z,1002.48
2016-05-23T09:46:45.427Z,1002.45
2016-05-23T09:47:45.462Z,1002.48
2016-05-23T09:48:45.495Z,1002.46
2016-05-23T09:49:45.544Z,1002.48
2016-05-23T09:50:45.579Z,1002.46
2016-05-23T09:51:45.613Z,1002.48
2016-05-23T09:52:45.647Z,1002.46
2016-05-23T09:53:45.680Z,1002.48
2016-05-23T09:54:45.730Z,1002.49
2016-05-23T09:55:45.764Z,1002.51
2016-05-23T09:56:45.798Z,1002.53
2016-05-23T09:57:45.832Z,1002.54
2016-05-23T09:58:45.866Z,1002.57
2016-05-23T09:59:45.916Z,1002.54
2016-05-23T10:00:45.949Z,1002.57
2016-05-23T10:01:45.984Z,1002.6
2016-05-23T10:02:46.018Z,1002.56
2016-05-23T10:03:46.052Z,1002.55
2016-05-23T10:04:46.101Z,1002.51
2016-05-23T10:05:46.135Z,1002.55
2016-05-23T10:06:46.168Z,1002.54
2016-05-23T10:07:46.203Z,1002.56
2016-05-23T10:08:46.252Z,1002.54
2016-05-23T10:09:46.286Z,1002.59
2016-05-23T10:10:46.320Z,1002.58
2016-05-23T10:11:46.354Z,1002.62
2016-05-23T10:12:46.388Z,1002.58
2016-05-23T10:13:46.422Z,1002.57
2016-05-23T10:14:46.472Z,1002.61
2016-05-23T10:15:46.506Z,1002.6
2016-05-23T10:16:46.539Z,1002.62
2016-05-23T10:17:46.572Z,1002.65
2016-05-23T10:18:46.608Z,1002.62
2016-05-23T10:19:46.657Z,1002.6
2016-05-23T10:20:46.691Z,1002.65
2016-05-23T10:21:46.724Z,1002.64
2016-05-23T10:22:46.758Z,1002.67
2016-05-23T10:23:46.808Z,1002.68
2016-05-23T10:24:46.842Z,1002.64
2016-05-23T10:25:46.876Z,1002.67
2016-05-23T10:26:46.910Z,1002.7
2016-05-23T10:27:46.960Z,1002.68
2016-05-23T10:28:46.994Z,1002.66
2016-05-23T10:29:47.152Z,1002.68
2016-05-23T10:30:47.062Z,1002.72
2016-05-23T10:31:47.111Z,1002.72
2016-05-23T10:32:47.146Z,1002.68
2016-05-23T10:33:47.178Z,1002.71
2016-05-23T10:34:47.212Z,1002.72
2016-05-23T10:35:47.246Z,1002.72
2016-05-23T10:36:47.281Z,1002.71
2016-05-23T10:37:47.330Z,1002.71
2016-05-23T10:38:47.364Z,1002.71
2016-05-23T10:39:47.398Z,1002.78
2016-05-23T10:40:47.432Z,1002.75
2016-05-23T10:41:47.466Z,1002.77
2016-05-23T10:42:47.515Z,1002.8
2016-05-23T10:43:47.549Z,1002.8
2016-05-23T10:44:47.583Z,1002.84
2016-05-23T10:45:47.617Z,1002.77
2016-05-23T10:46:47.667Z,1002.82
2016-05-23T10:47:47.700Z,1002.81
2016-05-23T10:48:47.735Z,1002.79
2016-05-23T10:49:47.769Z,1002.83
2016-05-23T10:50:47.819Z,1002.81
2016-05-23T10:51:47.852Z,1002.85
2016-05-23T10:52:47.886Z,1002.83
2016-05-23T10:53:47.920Z,1002.84
2016-05-23T10:54:47.955Z,1002.87
2016-05-23T10:55:48.004Z,1002.87
2016-05-23T10:56:48.037Z,1002.86
2016-05-23T10:57:48.071Z,1002.89
2016-05-23T10:58:48.105Z,1002.9
2016-05-23T10:59:48.155Z,1002.87
2016-05-23T11:00:48.188Z,1002.9
2016-05-23T11:01:48.223Z,1002.91
2016-05-23T11:02:48.257Z,1002.94
2016-05-23T11:03:48.307Z,1002.9
2016-05-23T11:04:48.340Z,1002.92
2016-05-23T11:05:48.374Z,1002.89
2016-05-23T11:06:48.409Z,1002.93
2016-05-23T11:07:48.458Z,1002.95
2016-05-23T11:08:48.492Z,1002.93
2016-05-23T11:09:48.542Z,1002.92
2016-05-23T11:10:48.559Z,1002.86
2016-05-23T11:11:48.609Z,1002.92
2016-05-23T11:12:48.643Z,1002.89
2016-05-23T11:13:48.677Z,1002.89
2016-05-23T11:14:48.726Z,1002.91
2016-05-23T11:15:48.761Z,1002.89
2016-05-23T11:16:48.795Z,1002.91
2016-05-23T11:17:48.829Z,1002.9
2016-05-23T11:18:48.862Z,1002.96
2016-05-23T11:19:48.897Z,1002.91
2016-05-23T11:20:48.946Z,1002.97
2016-05-23T11:21:48.980Z,1002.99
2016-05-23T11:22:49.014Z,1002.93
2016-05-23T11:23:49.047Z,1002.94
2016-05-23T11:24:49.082Z,1002.94
2016-05-23T11:25:49.131Z,1002.93
2016-05-23T11:26:49.166Z,1002.95
2016-05-23T11:27:49.199Z,1002.99
2016-05-23T11:28:49.233Z,1003.02
2016-05-23T11:29:49.267Z,1002.96
2016-05-23T11:30:49.316Z,1003.03
2016-05-23T11:31:49.351Z,1003.08
2016-05-23T11:32:49.385Z,1003.07
2016-05-23T11:33:49.419Z,1003.09
2016-05-23T11:34:49.468Z,1003.08
2016-05-23T11:35:49.502Z,1003.1
2016-05-23T11:36:49.536Z,1003.13
2016-05-23T11:37:49.570Z,1003.14
2016-05-23T11:38:49.620Z,1003.2
2016-05-23T11:39:49.653Z,1003.18
2016-05-23T11:40:49.687Z,1003.2
2016-05-23T11:41:49.721Z,1003.19
2016-05-23T11:42:49.770Z,1003.14
2016-05-23T11:43:49.820Z,1003.13
2016-05-23T11:44:49.839Z,1003.17
2016-05-23T11:45:49.888Z,1003.14
2016-05-23T11:46:49.922Z,1003.11
2016-05-23T11:47:49.956Z,1003.17
2016-05-23T11:48:49.989Z,1003.13
2016-05-23T11:49:50.024Z,1003.16
2016-05-23T11:50:50.073Z,1003.22
2016-05-23T11:51:50.108Z,1003.18
2016-05-23T11:52:50.142Z,1003.18
2016-05-23T11:53:50.191Z,1003.2
2016-05-23T11:54:50.225Z,1003.22
2016-05-23T11:55:50.258Z,1003.17
2016-05-23T11:56:50.293Z,1003.2
2016-05-23T11:57:50.342Z,1003.16
2016-05-23T11:58:50.377Z,1003.16
2016-05-23T11:59:51.052Z,1003.09
2016-05-23T12:00:50.459Z,1003.13
2016-05-23T12:01:50.493Z,1003.09
2016-05-23T12:02:50.527Z,1003.1
2016-05-23T12:03:50.562Z,1003.16
2016-05-23T12:04:50.596Z,1003.14
2016-05-23T12:05:50.646Z,1003.17
2016-05-23T12:06:50.679Z,1003.13
2016-05-23T12:07:50.729Z,1003.16
2016-05-23T12:08:50.763Z,1003.14